Scroll down
FLIGHT INFORMATION
PMDG Flight Operations

PFO2201

At Arrival Gate

SEQM
 KMIA
DATE: 2020-08-21
GATE: 
GATE DEPARTURE: 14:14
TAKEOFF: 14:20
DATE: 2020-08-21
GATE:  -
LANDING: 18:02
GATE ARRIVAL: 18:06
FLIGHT DATA
Speed: 
491 kts
Altitude: 
36,067 ft
Stage Length: 
1,560.2 nm
Block Time: 
3.9 hrs
Flight Time: 
3.7 hrs
Fuel Used: 
21,914 lb
Cleared Route: SEQM NEGAL ENSOL TCO TOKUT MILAT TBG ARNAL EMASA GCM ATUVI UCL XOPLI IKBIX PEAKY DVALL KMIA
TRACK DATA
50,000 ft 1,000 kts
AIRCRAFT INFO AND CUMULATIVE STATS
Aircraft Type: 
B737BDSF
Registration: 
SELCAL: 
MSN/LN: 
0 / 1
Total Flights: 
3
Total Block Time: 
9.9 hrs
Total Flight Time: 
9.2 hrs
Total Fuel Time: 
52,442 lb
DATALINK LOG | Newest first | Current as of: 2020-11-29 00:45:05
LABEL SEQUENCE CONTENT Dn/Up
QD101818:06 23.9▼ Dn
QC051318:02▼ Dn
2U5450KMIA 211553Z 12009KT 10SM FEW027 SCT034 BKN250 33/26 A2997 RMK AO2 SLP148 T03280256▲ Up
2S5710KMIA▼ Dn
5U1734KMIA 211905Z 12012KT 10SM VCTS FEW030CB SCT035 BKN050 32/25 A2998▲ Up
5S1936KMIA▼ Dn
QB234214:20▼ Dn
QA173714:14 45.9▼ Dn
A35626CLEARED TO KMIA VIA NEGAL UM674 TBG UL465 EMASA UL465 GCM UG448 IKBIX Y183 PEAKY DVALL CURSO5. SQUAWK .▲ Up
Q05313[LINK ACK]▲ Up
Q05313[LINK TEST]▼ Dn


AIRCRAFT HISTORY
FLIGHT DATE FLIGHT NO. ORIGIN DESTINATION CLEARED ROUTE BLOCK TIME FLIGHT TIME FUEL USED PILOT
2020-09-30TJSJ MRLB TJSJ SCAPA PENKO ERIKO OPLOS RADON TABOG MRLB3.5 hrs3.2 hrs17,685 lbZsolt Szivak
2020-08-26PFO1973KMIA TJSJ KMIA SKIPS RAJAY COZIE DONEZ PAARR RNDLY GTK COCBU SEBUG GRADI HARDE TJSJ2.6 hrs2.3 hrs12,842 lbMike Dryden
2020-08-21PFO2201SEQM KMIA SEQM NEGAL ENSOL TCO TOKUT MILAT TBG ARNAL EMASA GCM ATUVI UCL XOPLI IKBIX PEAKY DVALL KMIA3.9 hrs3.7 hrs21,914 lbRoberto Stopnicki